sensor_id;sensor_type;location;lat;lon;timestamp;pressure;altitude;pressure_sealevel;temperature;humidity
26083;BME280;13848;49.018;12.078;2023-06-22T00:00:44;97869.66;;;20.46;77.88
26083;BME280;13848;49.018;12.078;2023-06-22T00:03:10;97850.22;;;20.48;77.90
26083;BME280;13848;49.018;12.078;2023-06-22T00:05:36;97845.84;;;20.41;77.91
26083;BME280;13848;49.018;12.078;2023-06-22T00:08:03;97839.81;;;20.39;78.13
26083;BME280;13848;49.018;12.078;2023-06-22T00:10:30;97841.75;;;20.39;78.12
26083;BME280;13848;49.018;12.078;2023-06-22T00:12:56;97831.06;;;20.37;78.15
26083;BME280;13848;49.018;12.078;2023-06-22T00:15:22;97835.47;;;20.33;78.18
26083;BME280;13848;49.018;12.078;2023-06-22T00:17:48;97833.84;;;20.27;78.50
26083;BME280;13848;49.018;12.078;2023-06-22T00:20:14;97829.22;;;20.23;78.50
26083;BME280;13848;49.018;12.078;2023-06-22T00:22:41;97833.88;;;20.22;78.44
26083;BME280;13848;49.018;12.078;2023-06-22T00:25:07;97824.84;;;20.16;78.61
26083;BME280;13848;49.018;12.078;2023-06-22T00:27:35;97818.03;;;20.19;78.47
26083;BME280;13848;49.018;12.078;2023-06-22T00:30:00;97804.03;;;20.20;78.33
26083;BME280;13848;49.018;12.078;2023-06-22T00:32:26;97805.97;;;20.15;78.46
26083;BME280;13848;49.018;12.078;2023-06-22T00:34:52;97796.13;;;20.14;78.76
26083;BME280;13848;49.018;12.078;2023-06-22T00:37:18;97789.84;;;20.13;78.44
26083;BME280;13848;49.018;12.078;2023-06-22T00:39:44;97781.94;;;20.07;78.75
26083;BME280;13848;49.018;12.078;2023-06-22T00:42:10;97786.34;;;20.03;78.83
26083;BME280;13848;49.018;12.078;2023-06-22T00:44:37;97782.19;;;20.05;78.92
26083;BME280;13848;49.018;12.078;2023-06-22T00:47:04;97773.16;;;20.05;79.03
26083;BME280;13848;49.018;12.078;2023-06-22T00:49:30;97771.00;;;20.02;78.96
26083;BME280;13848;49.018;12.078;2023-06-22T00:51:57;97773.19;;;20.00;79.17
26083;BME280;13848;49.018;12.078;2023-06-22T00:54:23;97780.88;;;19.92;79.25
26083;BME280;13848;49.018;12.078;2023-06-22T00:56:50;97785.00;;;19.95;79.22
26083;BME280;13848;49.018;12.078;2023-06-22T00:59:16;97787.22;;;19.83;79.62
26083;BME280;13848;49.018;12.078;2023-06-22T01:01:44;97787.78;;;19.80;80.10
26083;BME280;13848;49.018;12.078;2023-06-22T01:04:10;97774.38;;;19.83;79.93
26083;BME280;13848;49.018;12.078;2023-06-22T01:06:41;97775.19;;;19.89;79.73
26083;BME280;13848;49.018;12.078;2023-06-22T01:09:14;97775.69;;;19.91;79.67
26083;BME280;13848;49.018;12.078;2023-06-22T01:11:42;97772.16;;;19.85;79.86
26083;BME280;13848;49.018;12.078;2023-06-22T01:14:15;97771.63;;;19.83;79.91
26083;BME280;13848;49.018;12.078;2023-06-22T01:16:48;97780.38;;;19.85;79.70
26083;BME280;13848;49.018;12.078;2023-06-22T01:19:27;97781.50;;;19.79;79.88
26083;BME280;13848;49.018;12.078;2023-06-22T01:21:55;97781.78;;;19.78;79.63
26083;BME280;13848;49.018;12.078;2023-06-22T01:24:24;97779.06;;;19.73;79.88
26083;BME280;13848;49.018;12.078;2023-06-22T01:26:57;97774.97;;;19.65;80.19
26083;BME280;13848;49.018;12.078;2023-06-22T01:29:30;97771.97;;;19.66;80.02
26083;BME280;13848;49.018;12.078;2023-06-22T01:31:59;97782.91;;;19.72;79.86
26083;BME280;13848;49.018;12.078;2023-06-22T01:34:26;97788.63;;;19.75;79.68
26083;BME280;13848;49.018;12.078;2023-06-22T01:36:53;97792.97;;;19.76;79.26
26083;BME280;13848;49.018;12.078;2023-06-22T01:39:20;97789.44;;;19.71;79.32
26083;BME280;13848;49.018;12.078;2023-06-22T01:41:47;97783.16;;;19.70;79.62
26083;BME280;13848;49.018;12.078;2023-06-22T01:44:14;97793.56;;;19.73;79.45
26083;BME280;13848;49.018;12.078;2023-06-22T01:46:42;97796.31;;;19.68;79.42
26083;BME280;13848;49.018;12.078;2023-06-22T01:49:09;97791.94;;;19.67;79.50
26083;BME280;13848;49.018;12.078;2023-06-22T01:51:35;97798.50;;;19.66;79.56
26083;BME280;13848;49.018;12.078;2023-06-22T01:54:01;97803.69;;;19.67;79.42
26083;BME280;13848;49.018;12.078;2023-06-22T01:56:27;97800.16;;;19.62;79.60
26083;BME280;13848;49.018;12.078;2023-06-22T01:58:59;97806.97;;;19.64;79.52
26083;BME280;13848;49.018;12.078;2023-06-22T02:01:32;97812.69;;;19.58;79.66
26083;BME280;13848;49.018;12.078;2023-06-22T02:04:06;97816.03;;;19.60;79.67
26083;BME280;13848;49.018;12.078;2023-06-22T02:06:37;97825.31;;;19.59;79.63
26083;BME280;13848;49.018;12.078;2023-06-22T02:09:08;97815.47;;;19.63;79.39
26083;BME280;13848;49.018;12.078;2023-06-22T02:11:36;97808.88;;;19.59;79.67
26083;BME280;13848;49.018;12.078;2023-06-22T02:14:04;97805.06;;;19.50;80.11
26083;BME280;13848;49.018;12.078;2023-06-22T02:16:31;97803.44;;;19.49;80.14
26083;BME280;13848;49.018;12.078;2023-06-22T02:19:01;97813.81;;;19.52;80.00
26083;BME280;13848;49.018;12.078;2023-06-22T02:21:29;97813.00;;;19.51;80.07
26083;BME280;13848;49.018;12.078;2023-06-22T02:23:55;97808.34;;;19.52;80.11
26083;BME280;13848;49.018;12.078;2023-06-22T02:26:21;97807.81;;;19.45;80.19
26083;BME280;13848;49.018;12.078;2023-06-22T02:28:47;97807.53;;;19.46;80.12
26083;BME280;13848;49.018;12.078;2023-06-22T02:31:13;97802.34;;;19.39;80.38
26083;BME280;13848;49.018;12.078;2023-06-22T02:33:39;97804.25;;;19.39;80.47
26083;BME280;13848;49.018;12.078;2023-06-22T02:36:05;97797.69;;;19.35;80.60
26083;BME280;13848;49.018;12.078;2023-06-22T02:38:32;97788.97;;;19.38;80.39
26083;BME280;13848;49.018;12.078;2023-06-22T02:40:58;97791.41;;;19.34;80.34
26083;BME280;13848;49.018;12.078;2023-06-22T02:43:24;97783.78;;;19.31;80.46
26083;BME280;13848;49.018;12.078;2023-06-22T02:45:50;97781.28;;;19.35;80.33
26083;BME280;13848;49.018;12.078;2023-06-22T02:48:16;97780.47;;;19.34;80.31
26083;BME280;13848;49.018;12.078;2023-06-22T02:50:42;97772.84;;;19.31;80.31
26083;BME280;13848;49.018;12.078;2023-06-22T02:53:08;97777.22;;;19.32;80.35
26083;BME280;13848;49.018;12.078;2023-06-22T02:55:35;97778.56;;;19.35;80.25
26083;BME280;13848;49.018;12.078;2023-06-22T02:58:01;97782.69;;;19.32;80.30
26083;BME280;13848;49.018;12.078;2023-06-22T03:00:27;97782.69;;;19.32;80.23
26083;BME280;13848;49.018;12.078;2023-06-22T03:02:53;97779.94;;;19.27;80.37
26083;BME280;13848;49.018;12.078;2023-06-22T03:05:19;97779.94;;;19.27;80.43
26083;BME280;13848;49.018;12.078;2023-06-22T03:07:45;97784.31;;;19.28;80.41
26083;BME280;13848;49.018;12.078;2023-06-22T03:10:12;97778.84;;;19.23;80.42
26083;BME280;13848;49.018;12.078;2023-06-22T03:12:40;97770.66;;;19.18;80.49
26083;BME280;13848;49.018;12.078;2023-06-22T03:15:08;97785.97;;;19.14;80.82
26083;BME280;13848;49.018;12.078;2023-06-22T03:17:35;97781.34;;;19.14;80.88
26083;BME280;13848;49.018;12.078;2023-06-22T03:20:02;97781.59;;;19.13;80.98
26083;BME280;13848;49.018;12.078;2023-06-22T03:22:27;97776.69;;;19.15;80.70
26083;BME280;13848;49.018;12.078;2023-06-22T03:24:53;97776.13;;;19.18;80.54
26083;BME280;13848;49.018;12.078;2023-06-22T03:27:19;97763.00;;;19.20;80.29
26083;BME280;13848;49.018;12.078;2023-06-22T03:29:46;97774.47;;;19.17;80.31
26083;BME280;13848;49.018;12.078;2023-06-22T03:32:12;97774.75;;;19.21;80.44
26083;BME280;13848;49.018;12.078;2023-06-22T03:34:38;97772.84;;;19.16;80.22
26083;BME280;13848;49.018;12.078;2023-06-22T03:37:04;97779.94;;;19.12;80.47
26083;BME280;13848;49.018;12.078;2023-06-22T03:39:31;97776.13;;;19.13;80.33
26083;BME280;13848;49.018;12.078;2023-06-22T03:41:57;97776.97;;;19.13;80.33
26083;BME280;13848;49.018;12.078;2023-06-22T03:44:23;97783.78;;;19.11;80.52
26083;BME280;13848;49.018;12.078;2023-06-22T03:46:50;97787.34;;;19.11;80.27
26083;BME280;13848;49.018;12.078;2023-06-22T03:49:16;97788.16;;;19.12;80.32
26083;BME280;13848;49.018;12.078;2023-06-22T03:51:42;97782.16;;;19.10;80.28
26083;BME280;13848;49.018;12.078;2023-06-22T03:54:08;97788.72;;;19.09;80.40
26083;BME280;13848;49.018;12.078;2023-06-22T03:56:34;97788.16;;;19.12;80.49
26083;BME280;13848;49.018;12.078;2023-06-22T03:59:00;97798.53;;;19.15;80.36
26083;BME280;13848;49.018;12.078;2023-06-22T04:01:25;97793.91;;;19.16;80.15
26083;BME280;13848;49.018;12.078;2023-06-22T04:03:53;97799.91;;;19.18;80.30
26083;BME280;13848;49.018;12.078;2023-06-22T04:06:19;97805.09;;;19.19;80.45
26083;BME280;13848;49.018;12.078;2023-06-22T04:08:45;97801.81;;;19.17;80.52
26083;BME280;13848;49.018;12.078;2023-06-22T04:11:11;97796.88;;;19.24;80.54
26083;BME280;13848;49.018;12.078;2023-06-22T04:13:37;97800.72;;;19.23;80.85
26083;BME280;13848;49.018;12.078;2023-06-22T04:16:03;97810.56;;;19.29;80.62
26083;BME280;13848;49.018;12.078;2023-06-22T04:18:29;97804.25;;;19.19;81.30
26083;BME280;13848;49.018;12.078;2023-06-22T04:20:56;97818.50;;;19.26;81.50
26083;BME280;13848;49.018;12.078;2023-06-22T04:23:22;97808.91;;;19.38;81.24
26083;BME280;13848;49.018;12.078;2023-06-22T04:25:48;97811.34;;;19.50;80.88
26083;BME280;13848;49.018;12.078;2023-06-22T04:28:14;97816.00;;;19.55;80.72
26083;BME280;13848;49.018;12.078;2023-06-22T04:30:40;97817.34;;;19.57;81.11
26083;BME280;13848;49.018;12.078;2023-06-22T04:33:06;97822.03;;;19.62;80.73
26083;BME280;13848;49.018;12.078;2023-06-22T04:35:32;97816.53;;;19.72;80.54
26083;BME280;13848;49.018;12.078;2023-06-22T04:37:59;97815.16;;;19.75;80.33
26083;BME280;13848;49.018;12.078;2023-06-22T04:40:25;97806.66;;;19.81;80.26
26083;BME280;13848;49.018;12.078;2023-06-22T04:42:51;97797.88;;;19.89;79.91
26083;BME280;13848;49.018;12.078;2023-06-22T04:45:17;97794.03;;;19.90;79.77
26083;BME280;13848;49.018;12.078;2023-06-22T04:47:43;97793.75;;;19.92;79.57
26083;BME280;13848;49.018;12.078;2023-06-22T04:50:09;97786.94;;;19.89;79.81
26083;BME280;13848;49.018;12.078;2023-06-22T04:52:35;97785.53;;;19.92;79.91
26083;BME280;13848;49.018;12.078;2023-06-22T04:55:02;97790.69;;;20.04;79.74
26083;BME280;13848;49.018;12.078;2023-06-22T04:57:28;97788.22;;;20.07;79.58
26083;BME280;13848;49.018;12.078;2023-06-22T04:59:54;97787.91;;;20.14;79.56
26083;BME280;13848;49.018;12.078;2023-06-22T05:02:20;97792.31;;;20.10;79.78
26083;BME280;13848;49.018;12.078;2023-06-22T05:04:46;97789.81;;;20.18;79.72
26083;BME280;13848;49.018;12.078;2023-06-22T05:07:12;97791.69;;;20.23;79.61
26083;BME280;13848;49.018;12.078;2023-06-22T05:09:38;97788.13;;;20.28;79.37
26083;BME280;13848;49.018;12.078;2023-06-22T05:12:06;97790.53;;;20.34;79.26
26083;BME280;13848;49.018;12.078;2023-06-22T05:14:32;97779.81;;;20.43;79.18
26083;BME280;13848;49.018;12.078;2023-06-22T05:16:58;97779.00;;;20.42;79.27
26083;BME280;13848;49.018;12.078;2023-06-22T05:19:24;97775.47;;;20.37;79.26
26083;BME280;13848;49.018;12.078;2023-06-22T05:21:50;97776.81;;;20.39;79.35
26083;BME280;13848;49.018;12.078;2023-06-22T05:24:16;97775.09;;;20.59;78.97
26083;BME280;13848;49.018;12.078;2023-06-22T05:26:42;97771.22;;;20.65;78.63
26083;BME280;13848;49.018;12.078;2023-06-22T05:29:09;97773.06;;;20.75;78.58
26083;BME280;13848;49.018;12.078;2023-06-22T05:31:35;97771.06;;;20.85;78.57
26083;BME280;13848;49.018;12.078;2023-06-22T05:34:01;97766.25;;;20.72;77.82
26083;BME280;13848;49.018;12.078;2023-06-22T05:36:27;97762.38;;;20.73;78.11
26083;BME280;13848;49.018;12.078;2023-06-22T05:38:53;97764.56;;;20.76;78.75
26083;BME280;13848;49.018;12.078;2023-06-22T05:41:19;97776.59;;;20.80;78.36
26083;BME280;13848;49.018;12.078;2023-06-22T05:43:45;97766.06;;;20.92;78.12
26083;BME280;13848;49.018;12.078;2023-06-22T05:46:12;97765.38;;;21.11;77.33
26083;BME280;13848;49.018;12.078;2023-06-22T05:48:38;97769.50;;;21.08;77.23
26083;BME280;13848;49.018;12.078;2023-06-22T05:51:04;97771.53;;;21.26;77.45
26083;BME280;13848;49.018;12.078;2023-06-22T05:53:30;97772.28;;;21.37;76.90
26083;BME280;13848;49.018;12.078;2023-06-22T05:55:56;97769.44;;;21.47;76.09
26083;BME280;13848;49.018;12.078;2023-06-22T05:58:22;97757.28;;;21.24;75.94
26083;BME280;13848;49.018;12.078;2023-06-22T06:00:48;97753.03;;;21.42;76.44
26083;BME280;13848;49.018;12.078;2023-06-22T06:03:15;97745.81;;;21.51;77.05
26083;BME280;13848;49.018;12.078;2023-06-22T06:05:41;97739.91;;;21.63;76.10
26083;BME280;13848;49.018;12.078;2023-06-22T06:08:07;97731.16;;;21.61;75.94
26083;BME280;13848;49.018;12.078;2023-06-22T06:10:33;97743.94;;;21.71;75.85
26083;BME280;13848;49.018;12.078;2023-06-22T06:13:00;97736.38;;;21.63;76.87
26083;BME280;13848;49.018;12.078;2023-06-22T06:15:26;97734.03;;;21.75;75.76
26083;BME280;13848;49.018;12.078;2023-06-22T06:17:53;97739.72;;;21.78;75.16
26083;BME280;13848;49.018;12.078;2023-06-22T06:20:22;97733.72;;;21.76;75.46
26083;BME280;13848;49.018;12.078;2023-06-22T06:22:48;97736.63;;;21.85;75.33
26083;BME280;13848;49.018;12.078;2023-06-22T06:25:15;97740.94;;;21.91;74.65
26083;BME280;13848;49.018;12.078;2023-06-22T06:27:42;97738.50;;;22.09;75.26
26083;BME280;13848;49.018;12.078;2023-06-22T06:30:08;97731.06;;;22.14;74.72
26083;BME280;13848;49.018;12.078;2023-06-22T06:32:34;97729.06;;;22.20;73.75
26083;BME280;13848;49.018;12.078;2023-06-22T06:35:00;97723.56;;;22.20;74.46
26083;BME280;13848;49.018;12.078;2023-06-22T06:37:28;97726.09;;;22.35;73.64
26083;BME280;13848;49.018;12.078;2023-06-22T06:39:53;97721.47;;;22.49;73.24
26083;BME280;13848;49.018;12.078;2023-06-22T06:42:19;97718.59;;;22.41;73.25
26083;BME280;13848;49.018;12.078;2023-06-22T06:44:45;97716.81;;;22.50;73.35
26083;BME280;13848;49.018;12.078;2023-06-22T06:47:11;97716.88;;;22.64;73.23
26083;BME280;13848;49.018;12.078;2023-06-22T06:49:37;97707.28;;;22.61;72.81
26083;BME280;13848;49.018;12.078;2023-06-22T06:52:04;97706.16;;;22.81;73.06
26083;BME280;13848;49.018;12.078;2023-06-22T06:54:31;97705.81;;;23.01;71.72
26083;BME280;13848;49.018;12.078;2023-06-22T06:56:57;97708.06;;;22.99;72.06
26083;BME280;13848;49.018;12.078;2023-06-22T06:59:23;97707.41;;;23.21;72.17
26083;BME280;13848;49.018;12.078;2023-06-22T07:01:49;97702.63;;;23.27;71.16
26083;BME280;13848;49.018;12.078;2023-06-22T07:04:15;97703.84;;;23.34;71.70
26083;BME280;13848;49.018;12.078;2023-06-22T07:06:40;97697.31;;;23.30;69.25
26083;BME280;13848;49.018;12.078;2023-06-22T07:09:06;97703.97;;;23.43;70.96
26083;BME280;13848;49.018;12.078;2023-06-22T07:11:34;97694.91;;;23.70;69.41
26083;BME280;13848;49.018;12.078;2023-06-22T07:14:00;97701.22;;;23.71;69.58
26083;BME280;13848;49.018;12.078;2023-06-22T07:16:25;97686.38;;;23.72;69.28
26083;BME280;13848;49.018;12.078;2023-06-22T07:18:51;97684.47;;;23.95;69.04
26083;BME280;13848;49.018;12.078;2023-06-22T07:21:17;97681.31;;;24.01;69.03
26083;BME280;13848;49.018;12.078;2023-06-22T07:23:43;97680.13;;;24.30;69.75
26083;BME280;13848;49.018;12.078;2023-06-22T07:26:09;97685.41;;;24.40;68.73
26083;BME280;13848;49.018;12.078;2023-06-22T07:28:36;97686.00;;;24.51;68.58
26083;BME280;13848;49.018;12.078;2023-06-22T07:31:02;97684.50;;;24.67;67.44
26083;BME280;13848;49.018;12.078;2023-06-22T07:33:28;97684.00;;;24.65;66.68
26083;BME280;13848;49.018;12.078;2023-06-22T07:35:54;97686.09;;;24.82;66.72
26083;BME280;13848;49.018;12.078;2023-06-22T07:38:20;97684.38;;;24.94;66.94
26083;BME280;13848;49.018;12.078;2023-06-22T07:40:47;97679.44;;;25.05;66.34
26083;BME280;13848;49.018;12.078;2023-06-22T07:43:13;97674.16;;;24.95;63.85
26083;BME280;13848;49.018;12.078;2023-06-22T07:45:40;97670.16;;;24.79;62.74
26083;BME280;13848;49.018;12.078;2023-06-22T07:48:06;97665.91;;;25.04;64.80
26083;BME280;13848;49.018;12.078;2023-06-22T07:50:33;97671.38;;;25.17;63.63
26083;BME280;13848;49.018;12.078;2023-06-22T07:52:58;97678.41;;;25.32;62.91
26083;BME280;13848;49.018;12.078;2023-06-22T07:55:24;97662.59;;;25.15;62.41
26083;BME280;13848;49.018;12.078;2023-06-22T07:57:50;97665.75;;;25.31;61.47
26083;BME280;13848;49.018;12.078;2023-06-22T08:00:17;97663.09;;;25.57;62.85
26083;BME280;13848;49.018;12.078;2023-06-22T08:02:45;97655.16;;;25.64;60.60
26083;BME280;13848;49.018;12.078;2023-06-22T08:05:12;97656.31;;;25.63;59.75
26083;BME280;13848;49.018;12.078;2023-06-22T08:07:38;97664.28;;;25.73;59.67
26083;BME280;13848;49.018;12.078;2023-06-22T08:10:05;97663.09;;;25.57;57.55
26083;BME280;13848;49.018;12.078;2023-06-22T08:12:32;97660.16;;;25.62;57.96
26083;BME280;13848;49.018;12.078;2023-06-22T08:14:57;97659.63;;;25.83;57.00
26083;BME280;13848;49.018;12.078;2023-06-22T08:17:24;97665.41;;;25.72;56.47
26083;BME280;13848;49.018;12.078;2023-06-22T08:19:51;97666.22;;;25.73;55.88
26083;BME280;13848;49.018;12.078;2023-06-22T08:22:17;97651.69;;;25.50;53.65
26083;BME280;13848;49.018;12.078;2023-06-22T08:24:43;97657.06;;;25.46;53.27
26083;BME280;13848;49.018;12.078;2023-06-22T08:27:10;97660.34;;;25.66;52.96
26083;BME280;13848;49.018;12.078;2023-06-22T08:29:36;97661.44;;;25.96;53.80
26083;BME280;13848;49.018;12.078;2023-06-22T08:32:02;97652.66;;;26.03;52.46
26083;BME280;13848;49.018;12.078;2023-06-22T08:34:28;97647.94;;;26.03;53.23
26083;BME280;13848;49.018;12.078;2023-06-22T08:36:55;97652.50;;;25.99;51.83
26083;BME280;13848;49.018;12.078;2023-06-22T08:39:21;97651.22;;;26.05;52.26
26083;BME280;13848;49.018;12.078;2023-06-22T08:41:47;97650.25;;;26.18;52.67
26083;BME280;13848;49.018;12.078;2023-06-22T08:44:13;97647.94;;;26.03;50.21
26083;BME280;13848;49.018;12.078;2023-06-22T08:46:39;97643.41;;;26.24;52.53
26083;BME280;13848;49.018;12.078;2023-06-22T08:49:05;97651.06;;;26.27;49.50
26083;BME280;13848;49.018;12.078;2023-06-22T08:51:31;97655.28;;;26.16;50.62
26083;BME280;13848;49.018;12.078;2023-06-22T08:53:58;97663.91;;;26.23;50.64
26083;BME280;13848;49.018;12.078;2023-06-22T08:56:24;97649.59;;;26.21;50.14
26083;BME280;13848;49.018;12.078;2023-06-22T08:58:50;97644.59;;;26.41;50.38
26083;BME280;13848;49.018;12.078;2023-06-22T09:01:16;97638.84;;;26.72;49.97
26083;BME280;13848;49.018;12.078;2023-06-22T09:03:42;97649.28;;;26.66;50.25
26083;BME280;13848;49.018;12.078;2023-06-22T09:06:08;97649.44;;;26.61;50.24
26083;BME280;13848;49.018;12.078;2023-06-22T09:08:34;97648.28;;;26.79;49.79
26083;BME280;13848;49.018;12.078;2023-06-22T09:11:01;97639.78;;;26.93;49.24
26083;BME280;13848;49.018;12.078;2023-06-22T09:13:30;97657.03;;;26.99;50.27
26083;BME280;13848;49.018;12.078;2023-06-22T09:15:56;97649.56;;;26.91;48.41
26083;BME280;13848;49.018;12.078;2023-06-22T09:18:22;97649.41;;;26.87;49.78
26083;BME280;13848;49.018;12.078;2023-06-22T09:20:48;97642.53;;;27.11;49.12
26083;BME280;13848;49.018;12.078;2023-06-22T09:23:14;97648.53;;;27.13;48.26
26083;BME280;13848;49.018;12.078;2023-06-22T09:25:40;97642.38;;;26.98;47.34
26083;BME280;13848;49.018;12.078;2023-06-22T09:28:07;97639.44;;;27.12;47.77
26083;BME280;13848;49.018;12.078;2023-06-22T09:30:33;97635.50;;;27.22;47.29
26083;BME280;13848;49.018;12.078;2023-06-22T09:32:59;97631.13;;;27.12;47.40
26083;BME280;13848;49.018;12.078;2023-06-22T09:35:24;97636.16;;;27.01;47.69
26083;BME280;13848;49.018;12.078;2023-06-22T09:37:50;97630.75;;;27.22;47.97
26083;BME280;13848;49.018;12.078;2023-06-22T09:40:16;97629.53;;;27.41;47.48
26083;BME280;13848;49.018;12.078;2023-06-22T09:42:42;97627.91;;;27.78;46.39
26083;BME280;13848;49.018;12.078;2023-06-22T09:45:10;97619.88;;;27.55;47.12
26083;BME280;13848;49.018;12.078;2023-06-22T09:47:36;97616.69;;;27.74;47.08
26083;BME280;13848;49.018;12.078;2023-06-22T09:50:02;97627.91;;;27.78;47.05
26083;BME280;13848;49.018;12.078;2023-06-22T09:52:28;97612.94;;;27.70;48.14
26083;BME280;13848;49.018;12.078;2023-06-22T09:54:54;97608.88;;;27.68;47.75
26083;BME280;13848;49.018;12.078;2023-06-22T09:57:20;97608.53;;;27.99;47.15
26083;BME280;13848;49.018;12.078;2023-06-22T09:59:46;97613.19;;;27.86;47.18
26083;BME280;13848;49.018;12.078;2023-06-22T10:02:13;97613.75;;;28.21;46.73
26083;BME280;13848;49.018;12.078;2023-06-22T10:04:39;97617.66;;;28.20;47.88
26083;BME280;13848;49.018;12.078;2023-06-22T10:07:05;97611.19;;;28.37;48.64
26083;BME280;13848;49.018;12.078;2023-06-22T10:09:31;97598.16;;;28.71;47.60
26083;BME280;13848;49.018;12.078;2023-06-22T10:11:57;97597.78;;;29.05;47.79
26083;BME280;13848;49.018;12.078;2023-06-22T10:14:23;97595.81;;;29.06;46.74
26083;BME280;13848;49.018;12.078;2023-06-22T10:16:49;97598.34;;;28.99;47.29
26083;BME280;13848;49.018;12.078;2023-06-22T10:19:16;97587.66;;;28.88;47.58
26083;BME280;13848;49.018;12.078;2023-06-22T10:21:42;97588.16;;;29.03;47.68
26083;BME280;13848;49.018;12.078;2023-06-22T10:24:08;97591.88;;;29.07;47.39
26083;BME280;13848;49.018;12.078;2023-06-22T10:26:34;97589.09;;;29.07;47.08
26083;BME280;13848;49.018;12.078;2023-06-22T10:29:00;97580.41;;;28.96;47.22
26083;BME280;13848;49.018;12.078;2023-06-22T10:31:26;97577.06;;;29.03;48.71
26083;BME280;13848;49.018;12.078;2023-06-22T10:33:53;97571.28;;;29.08;47.25
26083;BME280;13848;49.018;12.078;2023-06-22T10:36:20;97573.38;;;29.11;48.18
26083;BME280;13848;49.018;12.078;2023-06-22T10:38:46;97569.38;;;29.57;47.95
26083;BME280;13848;49.018;12.078;2023-06-22T10:41:12;97564.81;;;29.65;46.49
26083;BME280;13848;49.018;12.078;2023-06-22T10:43:38;97564.13;;;29.56;44.71
26083;BME280;13848;49.018;12.078;2023-06-22T10:46:04;97559.16;;;29.37;45.85
26083;BME280;13848;49.018;12.078;2023-06-22T10:48:30;97555.78;;;29.56;46.76
26083;BME280;13848;49.018;12.078;2023-06-22T10:50:56;97555.31;;;29.66;45.58
26083;BME280;13848;49.018;12.078;2023-06-22T10:53:23;97549.31;;;29.52;45.55
26083;BME280;13848;49.018;12.078;2023-06-22T10:55:49;97541.66;;;29.61;46.20
26083;BME280;13848;49.018;12.078;2023-06-22T10:58:15;97550.44;;;29.87;46.27
26083;BME280;13848;49.018;12.078;2023-06-22T11:00:41;97543.81;;;29.92;44.36
26083;BME280;13848;49.018;12.078;2023-06-22T11:03:07;97539.59;;;29.58;44.41
26083;BME280;13848;49.018;12.078;2023-06-22T11:05:33;97526.16;;;29.35;44.00
26083;BME280;13848;49.018;12.078;2023-06-22T11:07:59;97533.78;;;29.51;44.76
26083;BME280;13848;49.018;12.078;2023-06-22T11:10:26;97524.31;;;29.64;44.19
26083;BME280;13848;49.018;12.078;2023-06-22T11:12:52;97526.13;;;29.72;43.80
26083;BME280;13848;49.018;12.078;2023-06-22T11:15:18;97518.78;;;29.92;43.76
26083;BME280;13848;49.018;12.078;2023-06-22T11:17:44;97517.06;;;29.87;43.32
26083;BME280;13848;49.018;12.078;2023-06-22T11:20:11;97509.59;;;30.04;44.07
26083;BME280;13848;49.018;12.078;2023-06-22T11:22:37;97520.50;;;29.97;44.17
26083;BME280;13848;49.018;12.078;2023-06-22T11:25:04;97504.50;;;30.06;44.67
26083;BME280;13848;49.018;12.078;2023-06-22T11:27:31;97500.63;;;30.23;43.77
26083;BME280;13848;49.018;12.078;2023-06-22T11:29:57;97505.53;;;30.01;42.81
26083;BME280;13848;49.018;12.078;2023-06-22T11:32:23;97506.69;;;29.72;42.42
26083;BME280;13848;49.018;12.078;2023-06-22T11:34:49;97501.94;;;29.73;42.82
26083;BME280;13848;49.018;12.078;2023-06-22T11:37:15;97502.69;;;29.85;42.56
26083;BME280;13848;49.018;12.078;2023-06-22T11:39:42;97500.69;;;29.70;43.30
26083;BME280;13848;49.018;12.078;2023-06-22T11:42:08;97501.59;;;29.50;42.94
26083;BME280;13848;49.018;12.078;2023-06-22T11:44:35;97504.63;;;29.57;43.58
26083;BME280;13848;49.018;12.078;2023-06-22T11:47:01;97499.16;;;29.73;43.03
26083;BME280;13848;49.018;12.078;2023-06-22T11:49:27;97494.59;;;29.92;42.29
26083;BME280;13848;49.018;12.078;2023-06-22T11:51:53;97492.50;;;29.89;43.36
26083;BME280;13848;49.018;12.078;2023-06-22T11:54:19;97489.31;;;30.03;43.63
26083;BME280;13848;49.018;12.078;2023-06-22T11:56:45;97482.78;;;29.83;43.06
26083;BME280;13848;49.018;12.078;2023-06-22T11:59:10;97482.28;;;29.93;43.40
26083;BME280;13848;49.018;12.078;2023-06-22T12:01:38;97484.28;;;29.93;43.48
26083;BME280;13848;49.018;12.078;2023-06-22T12:04:04;97488.06;;;30.01;43.38
26083;BME280;13848;49.018;12.078;2023-06-22T12:06:29;97478.63;;;29.77;43.26
26083;BME280;13848;49.018;12.078;2023-06-22T12:08:55;97477.91;;;29.80;43.51
26083;BME280;13848;49.018;12.078;2023-06-22T12:11:21;97478.16;;;29.87;42.86
26083;BME280;13848;49.018;12.078;2023-06-22T12:13:47;97475.81;;;29.89;42.92
26083;BME280;13848;49.018;12.078;2023-06-22T12:16:13;97476.00;;;29.97;43.15
26083;BME280;13848;49.018;12.078;2023-06-22T12:18:40;97470.06;;;30.10;43.23
26083;BME280;13848;49.018;12.078;2023-06-22T12:21:07;97457.00;;;30.27;43.14
26083;BME280;13848;49.018;12.078;2023-06-22T12:23:33;97459.75;;;30.39;41.87
26083;BME280;13848;49.018;12.078;2023-06-22T12:25:59;97460.44;;;30.36;42.33
26083;BME280;13848;49.018;12.078;2023-06-22T12:28:25;97459.81;;;30.42;42.55
26083;BME280;13848;49.018;12.078;2023-06-22T12:30:51;97450.28;;;30.43;42.70
26083;BME280;13848;49.018;12.078;2023-06-22T12:33:17;97452.00;;;30.48;42.62
26083;BME280;13848;49.018;12.078;2023-06-22T12:35:45;97447.81;;;30.38;42.11
26083;BME280;13848;49.018;12.078;2023-06-22T12:38:11;97441.41;;;30.38;41.81
26083;BME280;13848;49.018;12.078;2023-06-22T12:40:37;97442.16;;;30.51;41.55
26083;BME280;13848;49.018;12.078;2023-06-22T12:43:03;97448.88;;;30.50;41.72
26083;BME280;13848;49.018;12.078;2023-06-22T12:45:29;97447.81;;;30.38;42.26